Time;durP1;ratioP1;P1;durP2;ratioP2;P2;SDS_P1;SDS_P2;PMS_P1;PMS_P2;Temp;Humidity;BMP_temperature;BMP_pressure;BME280_temperature;BME280_humidity;BME280_pressure;Samples;Min_cycle;Max_cycle;Signal;HPM_P1;HPM_P2
2021/10/31 00:01:44;;;;;;;20.65;16.48;;;;;;;9.09;84.19;95354.28;5082594;28;20404;-48
2021/10/31 00:04:11;;;;;;;21.50;16.27;;;;;;;9.22;83.79;95382.06;5086309;28;20421;-50
2021/10/31 00:06:38;;;;;;;21.15;16.48;;;;;;;9.23;84.01;95389.03;5091618;28;20044;-50
2021/10/31 00:09:07;;;;;;;20.40;15.65;;;;;;;9.27;83.24;95400.75;5085710;28;20063;-50
2021/10/31 00:11:35;;;;;;;22.02;17.17;;;;;;;9.21;83.70;95413.66;5089338;28;20428;-50
2021/10/31 00:14:02;;;;;;;24.92;18.70;;;;;;;9.52;81.23;95398.81;5086940;28;20114;-48
2021/10/31 00:16:29;;;;;;;21.70;17.17;;;;;;;9.33;82.29;95415.59;5090549;28;20067;-53
2021/10/31 00:18:56;;;;;;;21.73;16.00;;;;;;;8.91;83.74;95415.75;5088645;28;20040;-48
2021/10/31 00:21:25;;;;;;;20.75;16.05;;;;;;;8.88;84.70;95419.13;5086258;28;20041;-52
2021/10/31 00:23:54;;;;;;;21.75;17.25;;;;;;;9.07;84.07;95421.31;5081958;28;20101;-48
2021/10/31 00:26:21;;;;;;;19.80;16.02;;;;;;;8.69;85.59;95433.09;5089002;28;20044;-48
2021/10/31 00:28:49;;;;;;;20.25;15.70;;;;;;;8.83;85.25;95435.50;5089545;28;20123;-50
2021/10/31 00:31:16;;;;;;;20.10;16.20;;;;;;;8.87;85.19;95426.44;5089912;28;20140;-54
2021/10/31 00:33:43;;;;;;;21.35;16.35;;;;;;;8.93;84.59;95418.09;5088100;28;20044;-46
2021/10/31 00:36:10;;;;;;;18.85;15.45;;;;;;;8.87;84.84;95418.34;5086748;28;20044;-50
2021/10/31 00:38:37;;;;;;;20.83;16.48;;;;;;;8.71;86.00;95421.97;5088857;28;20512;-51
2021/10/31 00:41:04;;;;;;;20.70;17.73;;;;;;;8.57;86.80;95425.75;5087003;28;20502;-54
2021/10/31 00:43:31;;;;;;;20.58;16.55;;;;;;;8.76;86.08;95429.88;5081719;28;20072;-48
2021/10/31 00:45:58;;;;;;;19.63;15.90;;;;;;;8.86;85.80;95429.44;5085678;28;20067;-50
2021/10/31 00:48:25;;;;;;;20.60;16.73;;;;;;;8.62;87.00;95425.56;5088418;28;20516;-48
2021/10/31 00:50:52;;;;;;;19.35;15.35;;;;;;;8.59;87.24;95423.53;5087779;28;20046;-52
2021/10/31 00:53:20;;;;;;;21.05;16.48;;;;;;;8.71;86.72;95432.75;5081576;28;20051;-48
2021/10/31 00:55:47;;;;;;;21.52;16.55;;;;;;;8.77;86.39;95421.44;5076854;28;20095;-49
2021/10/31 00:58:14;;;;;;;19.52;15.85;;;;;;;8.82;86.16;95415.84;5085345;28;20056;-51
2021/10/31 01:00:41;;;;;;;18.98;15.52;;;;;;;8.74;86.62;95424.00;5084547;28;20054;-52
2021/10/31 01:03:08;;;;;;;20.77;16.25;;;;;;;8.63;87.31;95419.03;5085589;28;20523;-46
2021/10/31 01:05:42;;;;;;;22.30;15.43;;;;;;;8.68;86.85;95409.16;5086720;28;20777;-50
2021/10/31 01:08:17;;;;;;;;;;;;;;;8.90;85.94;95416.84;5087791;28;20063;-49
2021/10/31 01:11:02;;;;;;;19.95;15.88;;;;;;;8.99;85.19;95414.06;5080263;28;19985;-52
2021/10/31 01:13:57;;;;;;;18.65;15.02;;;;;;;9.03;84.90;95406.88;5078780;28;20086;-50
2021/10/31 01:16:38;;;;;;;21.17;16.75;;;;;;;9.13;84.29;95393.75;5087179;28;20066;-49
2021/10/31 01:19:27;;;;;;;19.88;15.88;;;;;;;9.00;84.95;95400.28;5089110;28;20040;-52
2021/10/31 01:22:03;;;;;;;19.65;15.73;;;;;;;9.01;84.57;95401.06;5087928;28;20481;-48
2021/10/31 01:24:59;;;;;;;22.23;17.02;;;;;;;9.00;83.89;95408.38;5090631;28;20036;-47
2021/10/31 01:27:44;;;;;;;21.60;15.48;;;;;;;8.91;84.12;95402.28;5085834;28;20098;-50
2021/10/31 01:30:29;;;;;;;20.55;15.68;;;;;;;8.94;83.86;95403.50;5089074;28;20072;-52
2021/10/31 01:33:14;;;;;;;20.77;16.30;;;;;;;9.01;83.78;95406.44;5085099;28;20046;-49
2021/10/31 01:36:06;;;;;;;19.77;15.90;;;;;;;9.05;83.33;95412.75;5089430;28;20051;-49
2021/10/31 01:38:55;;;;;;;19.23;15.13;;;;;;;9.07;83.29;95407.81;5086285;28;20036;-47
2021/10/31 01:41:40;;;;;;;21.02;16.52;;;;;;;9.08;83.03;95404.75;5086030;28;20064;-54
2021/10/31 01:44:26;;;;;;;20.00;15.60;;;;;;;8.74;84.66;95415.91;5079718;28;20044;-48
2021/10/31 01:47:14;;;;;;;20.80;15.18;;;;;;;8.48;86.53;95419.63;5093678;28;20048;-47
2021/10/31 01:49:50;;;;;;;18.48;14.60;;;;;;;8.69;85.84;95416.94;5076666;28;20064;-48
2021/10/31 01:52:28;;;;;;;20.13;14.57;;;;;;;8.67;85.42;95416.47;5092188;28;20055;-47
2021/10/31 01:55:02;;;;;;;21.45;16.02;;;;;;;8.86;84.65;95422.13;5087135;28;20168;-51
2021/10/31 01:57:31;;;;;;;23.55;16.70;;;;;;;9.26;83.12;95415.34;5114988;22;20043;-48
2021/10/31 02:00:04;;;;;;;21.05;14.65;;;;;;;9.05;83.85;95416.22;5111778;28;20457;-50
2021/10/31 02:02:43;;;;;;;17.60;14.27;;;;;;;9.17;84.17;95407.38;5091820;28;20841;-52
2021/10/31 02:05:21;;;;;;;18.73;14.77;;;;;;;9.02;84.46;95413.41;5102882;28;20500;-47
2021/10/31 02:07:52;;;;;;;17.65;13.93;;;;;;;8.99;84.70;95411.38;5101002;28;20123;-48
2021/10/31 02:10:21;;;;;;;18.15;13.50;;;;;;;8.86;84.93;95410.56;5086608;28;20044;-48
2021/10/31 02:12:51;;;;;;;19.73;14.23;;;;;;;8.93;84.80;95416.19;5087286;28;20135;-47
2021/10/31 02:15:20;;;;;;;18.05;14.32;;;;;;;8.66;86.43;95421.06;5089190;28;20043;-47
2021/10/31 02:17:51;;;;;;;21.88;15.15;;;;;;;9.22;84.57;95419.84;5091902;28;20040;-46
2021/10/31 02:20:19;;;;;;;19.38;15.07;;;;;;;9.01;84.90;95422.63;5087590;28;20043;-48
2021/10/31 02:22:57;;;;;;;19.33;14.93;;;;;;;9.02;84.79;95419.59;5088727;28;20064;-48
2021/10/31 02:25:25;;;;;;;19.17;14.82;;;;;;;9.01;84.28;95418.03;5091520;28;20807;-48
2021/10/31 02:27:52;;;;;;;18.02;13.98;;;;;;;8.91;84.35;95410.38;5089380;28;20063;-51
2021/10/31 02:30:20;;;;;;;20.25;15.18;;;;;;;9.09;83.82;95416.34;5089428;28;20443;-51
2021/10/31 02:32:48;;;;;;;17.73;14.43;;;;;;;8.95;83.81;95419.34;5088291;28;20066;-51
2021/10/31 02:35:15;;;;;;;18.80;13.98;;;;;;;8.87;84.33;95425.63;5092041;28;20101;-48
2021/10/31 02:37:43;;;;;;;19.35;13.88;;;;;;;8.85;84.19;95425.19;5090991;28;20123;-51
2021/10/31 02:40:13;;;;;;;16.00;12.95;;;;;;;8.82;84.61;95420.44;5091341;28;20480;-51
2021/10/31 02:42:40;;;;;;;18.70;13.00;;;;;;;8.86;84.35;95419.44;5085181;28;20134;-52
2021/10/31 02:45:10;;;;;;;19.65;14.65;;;;;;;8.83;84.30;95411.22;5083640;28;20094;-49
2021/10/31 02:47:57;;;;;;;16.70;13.13;;;;;;;8.92;84.26;95401.13;5086072;28;20468;-50
2021/10/31 02:50:45;;;;;;;17.65;13.15;;;;;;;8.84;84.21;95404.72;5090691;28;20465;-50
2021/10/31 02:53:20;;;;;;;16.55;11.85;;;;;;;8.72;84.86;95412.78;5087666;28;20501;-47
2021/10/31 02:56:11;;;;;;;18.70;12.18;;;;;;;8.73;85.15;95411.66;5092806;28;20044;-50
2021/10/31 02:58:46;;;;;;;16.23;11.98;;;;;;;8.62;85.29;95412.06;5090012;28;20044;-47
2021/10/31 03:01:15;;;;;;;19.40;12.35;;;;;;;8.67;84.98;95421.84;5088683;28;20054;-50
2021/10/31 03:03:43;;;;;;;14.77;11.23;;;;;;;8.57;85.61;95419.56;5086501;28;20466;-51
2021/10/31 03:06:11;;;;;;;15.48;12.10;;;;;;;8.49;86.35;95421.25;5090506;28;20044;-50
2021/10/31 03:08:39;;;;;;;14.45;11.13;;;;;;;8.63;85.80;95426.34;5086988;28;20064;-49
2021/10/31 03:11:08;;;;;;;15.30;11.43;;;;;;;8.66;84.99;95423.75;5090050;28;20047;-51
2021/10/31 03:13:36;;;;;;;14.65;11.10;;;;;;;8.62;85.02;95430.16;5087496;28;20093;-47
2021/10/31 03:16:06;;;;;;;13.10;10.27;;;;;;;8.69;85.14;95437.72;5089879;28;20040;-51
2021/10/31 03:18:33;;;;;;;13.07;10.20;;;;;;;8.72;84.95;95428.97;5088112;28;20042;-48
2021/10/31 03:21:01;;;;;;;10.93;9.13;;;;;;;8.74;84.38;95429.41;5088906;28;20192;-48
2021/10/31 03:23:28;;;;;;;14.05;11.10;;;;;;;9.38;81.41;95433.47;5088102;28;20050;-48
2021/10/31 03:25:56;;;;;;;12.43;9.68;;;;;;;9.32;80.47;95425.59;5090581;28;20142;-48
2021/10/31 03:28:23;;;;;;;13.45;9.23;;;;;;;8.82;82.56;95431.25;5087028;28;20036;-50
2021/10/31 03:30:50;;;;;;;13.00;9.68;;;;;;;8.66;83.70;95437.25;5088831;28;20430;-48
2021/10/31 03:33:17;;;;;;;13.27;9.07;;;;;;;8.78;83.86;95431.13;5088225;28;20476;-48
2021/10/31 03:35:44;;;;;;;12.10;8.45;;;;;;;8.73;83.49;95435.94;5091033;28;20509;-50
2021/10/31 03:38:11;;;;;;;11.93;9.57;;;;;;;8.86;83.18;95430.22;5088621;28;20040;-47
2021/10/31 03:40:38;;;;;;;13.20;9.55;;;;;;;8.83;82.72;95435.50;5087189;28;20062;-50
2021/10/31 03:43:05;;;;;;;12.50;9.45;;;;;;;8.83;82.61;95430.09;5085891;28;20261;-50
2021/10/31 03:45:32;;;;;;;16.60;9.73;;;;;;;9.00;82.07;95416.47;5088301;28;20048;-50
2021/10/31 03:47:59;;;;;;;12.77;9.75;;;;;;;9.01;82.17;95430.72;5089183;28;20504;-48
2021/10/31 03:50:26;;;;;;;16.30;10.13;;;;;;;8.94;81.95;95419.69;5085766;28;20050;-47
2021/10/31 03:52:55;;;;;;;12.93;10.00;;;;;;;9.04;81.76;95413.88;5084291;28;20036;-52
2021/10/31 03:55:23;;;;;;;12.98;9.63;;;;;;;8.79;82.10;95418.41;5086744;28;20064;-47
2021/10/31 03:57:50;;;;;;;12.55;9.57;;;;;;;8.82;nan;95420.44;5087088;28;20036;-50
2021/10/31 04:00:17;;;;;;;11.88;9.00;;;;;;;8.56;82.58;95410.69;5084350;28;20044;-51
2021/10/31 04:02:44;;;;;;;13.57;9.23;;;;;;;8.71;82.34;95413.88;5087572;28;20040;-49
2021/10/31 04:05:13;;;;;;;12.65;9.32;;;;;;;8.43;83.07;95417.16;5090503;28;20139;-51
2021/10/31 04:07:40;;;;;;;12.57;7.95;;;;;;;8.51;83.26;95412.81;5089892;28;20532;-50
2021/10/31 04:10:08;;;;;;;11.05;8.73;;;;;;;8.43;83.36;95411.78;5084897;28;20089;-50
2021/10/31 04:12:35;;;;;;;11.70;9.50;;;;;;;8.49;82.92;95409.66;5088650;28;20058;-51
2021/10/31 04:15:06;;;;;;;10.38;8.13;;;;;;;8.56;82.40;95409.91;5082403;28;20131;-48
2021/10/31 04:17:34;;;;;;;12.98;9.20;;;;;;;8.59;82.24;95410.03;5088846;28;20036;-49
2021/10/31 04:20:01;;;;;;;11.25;8.75;;;;;;;8.66;81.95;95398.72;5088606;28;20417;-51
2021/10/31 04:22:28;;;;;;;13.63;8.68;;;;;;;8.84;81.36;95397.41;5067414;28;20505;-50
2021/10/31 04:24:55;;;;;;;11.20;8.68;;;;;;;8.74;81.56;95397.03;5088637;28;20048;-47
2021/10/31 04:27:22;;;;;;;9.98;8.38;;;;;;;8.83;81.13;95403.13;5088691;28;20051;-49
2021/10/31 04:29:50;;;;;;;10.38;7.63;;;;;;;8.74;81.27;95410.53;5089197;28;20089;-52
2021/10/31 04:32:17;;;;;;;11.27;7.15;;;;;;;8.75;81.56;95401.34;5087187;28;20043;-48
2021/10/31 04:34:44;;;;;;;12.23;8.63;;;;;;;8.71;82.01;95395.00;5091327;28;20135;-47
2021/10/31 04:37:11;;;;;;;9.48;7.75;;;;;;;8.55;82.07;95392.16;5085942;28;20400;-52
2021/10/31 04:39:38;;;;;;;10.85;8.10;;;;;;;8.98;79.90;95382.84;5081542;28;20157;-49
2021/10/31 04:42:06;;;;;;;10.93;8.50;;;;;;;8.78;79.77;95393.34;5086879;28;20079;-48
2021/10/31 04:44:34;;;;;;;12.85;9.35;;;;;;;8.60;81.32;95384.63;5084582;28;20105;-47
2021/10/31 04:47:01;;;;;;;10.98;7.90;;;;;;;8.34;82.06;95384.06;5090491;28;20461;-50
2021/10/31 04:49:29;;;;;;;10.15;7.82;;;;;;;8.21;83.17;95385.91;5088326;28;20044;-48
2021/10/31 04:51:57;;;;;;;10.20;7.78;;;;;;;8.25;83.07;95391.44;5082308;28;20052;-47
2021/10/31 04:54:24;;;;;;;12.65;7.47;;;;;;;8.37;82.67;95380.72;5089420;28;20050;-47
2021/10/31 04:56:51;;;;;;;11.73;7.13;;;;;;;8.47;82.65;95387.63;5090146;28;20048;-49
2021/10/31 04:59:18;;;;;;;10.15;7.47;;;;;;;8.48;82.39;95390.00;5088857;28;20046;-48
2021/10/31 05:01:45;;;;;;;9.25;7.70;;;;;;;8.42;82.20;95388.63;5077401;28;20071;-48
2021/10/31 05:04:13;;;;;;;11.95;8.30;;;;;;;8.27;82.63;95383.81;5084407;28;20040;-48
2021/10/31 05:06:40;;;;;;;9.90;8.00;;;;;;;8.32;82.32;95380.91;5089007;28;20493;-48
2021/10/31 05:09:07;;;;;;;12.13;8.18;;;;;;;8.35;82.01;95370.28;5087742;28;20130;-49
2021/10/31 05:11:34;;;;;;;11.35;8.00;;;;;;;8.40;81.55;95370.09;5083488;28;20089;-50
2021/10/31 05:14:00;;;;;;;10.43;7.50;;;;;;;8.31;81.77;95371.25;5086839;28;20067;-51
2021/10/31 05:16:27;;;;;;;11.10;6.90;;;;;;;8.42;81.60;95370.56;5089211;28;20046;-47
2021/10/31 05:18:56;;;;;;;10.80;7.55;;;;;;;8.53;81.05;95368.22;5085509;28;20405;-50
2021/10/31 05:21:23;;;;;;;10.82;7.22;;;;;;;8.43;81.49;95363.25;5084857;28;20558;-47
2021/10/31 05:23:50;;;;;;;13.27;7.82;;;;;;;8.33;81.57;95358.25;5090291;28;20046;-51
2021/10/31 05:26:17;;;;;;;10.05;7.20;;;;;;;8.40;81.16;95362.00;5092295;28;20067;-50
2021/10/31 05:28:44;;;;;;;8.95;6.25;;;;;;;8.17;82.28;95366.16;5094021;28;20047;-49
2021/10/31 05:31:11;;;;;;;9.88;7.50;;;;;;;8.24;82.28;95360.22;5091594;28;20040;-50
2021/10/31 05:33:38;;;;;;;10.23;7.18;;;;;;;8.05;82.26;95347.22;5091757;28;20527;-50
2021/10/31 05:36:05;;;;;;;8.82;7.13;;;;;;;8.06;82.19;95344.22;5091576;28;20426;-47
2021/10/31 05:38:32;;;;;;;12.80;7.45;;;;;;;8.15;81.65;95347.59;5094927;28;20463;-48
2021/10/31 05:40:59;;;;;;;11.82;7.57;;;;;;;8.29;81.12;95351.94;5087511;28;20028;-46
2021/10/31 05:43:27;;;;;;;10.18;7.10;;;;;;;8.19;81.15;95348.53;5085342;28;20117;-48
2021/10/31 05:45:56;;;;;;;8.55;6.25;;;;;;;8.31;80.77;95350.47;5090484;28;20064;-46
2021/10/31 05:48:25;;;;;;;8.40;6.45;;;;;;;8.23;81.43;95347.88;5093823;28;20052;-49
2021/10/31 05:50:57;;;;;;;9.27;6.82;;;;;;;8.33;81.08;95352.84;5090281;28;20032;-50
2021/10/31 05:53:24;;;;;;;11.67;7.00;;;;;;;8.19;81.11;95347.75;5085917;28;20048;-50
2021/10/31 05:55:51;;;;;;;9.55;7.07;;;;;;;8.27;80.47;95354.19;5092501;28;20406;-52
2021/10/31 05:58:18;;;;;;;7.80;5.82;;;;;;;8.03;81.75;95349.47;5090520;28;20143;-48
2021/10/31 06:00:45;;;;;;;8.68;6.40;;;;;;;8.07;81.92;95351.19;5090351;28;20199;-49
2021/10/31 06:03:12;;;;;;;9.50;6.47;;;;;;;8.11;81.29;95341.31;5092511;28;20044;-51
2021/10/31 06:05:43;;;;;;;7.47;5.97;;;;;;;8.05;81.01;95347.22;5090270;28;20044;-47
2021/10/31 06:08:14;;;;;;;7.18;5.80;;;;;;;8.03;81.28;95341.41;5089334;28;20071;-50
2021/10/31 06:10:42;;;;;;;8.98;6.13;;;;;;;8.23;80.80;95345.97;5086344;28;20044;-48
2021/10/31 06:13:09;;;;;;;8.85;6.20;;;;;;;8.23;80.30;95339.78;5088217;28;20063;-49
2021/10/31 06:15:36;;;;;;;9.73;6.45;;;;;;;8.06;81.07;95344.22;5091536;28;20048;-49
2021/10/31 06:18:03;;;;;;;8.27;5.93;;;;;;;8.07;80.80;95339.63;5090044;28;20045;-51
2021/10/31 06:20:31;;;;;;;9.70;6.20;;;;;;;8.15;80.73;95347.59;5088296;28;20696;-49
2021/10/31 06:22:57;;;;;;;10.55;6.30;;;;;;;8.09;80.65;95346.25;5084884;28;20056;-49
2021/10/31 06:25:25;;;;;;;7.97;5.68;;;;;;;8.04;80.67;95342.97;5087659;28;20056;-51
2021/10/31 06:27:51;;;;;;;8.27;5.53;;;;;;;7.98;80.77;95345.06;5090300;28;20040;-50
2021/10/31 06:30:19;;;;;;;8.68;6.25;;;;;;;7.96;80.94;95342.72;5089715;28;20051;-50
2021/10/31 06:32:46;;;;;;;9.43;6.10;;;;;;;7.75;82.18;95341.13;5082833;28;20042;-51
2021/10/31 06:35:13;;;;;;;9.10;5.43;;;;;;;7.71;82.88;95339.09;5092058;28;20576;-50
2021/10/31 06:37:39;;;;;;;8.38;5.93;;;;;;;7.72;82.90;95340.66;5088847;28;20052;-50
2021/10/31 06:40:07;;;;;;;7.13;5.20;;;;;;;7.91;82.37;95344.81;5089302;28;20135;-52
2021/10/31 06:42:35;;;;;;;8.98;5.85;;;;;;;7.94;81.92;95344.94;5081151;28;20154;-49
2021/10/31 06:45:02;;;;;;;10.30;6.20;;;;;;;8.04;81.50;95349.13;5083739;28;20131;-47
2021/10/31 06:47:29;;;;;;;9.00;5.85;;;;;;;8.07;81.04;95340.41;5083867;28;20032;-49
2021/10/31 06:49:57;;;;;;;7.45;5.35;;;;;;;8.09;81.14;95335.47;5088363;28;20054;-50
2021/10/31 06:52:24;;;;;;;8.85;5.75;;;;;;;7.99;81.44;95333.16;5084802;28;20452;-49
2021/10/31 06:54:51;;;;;;;8.52;5.28;;;;;;;7.92;81.97;95333.69;5090363;28;20050;-52
2021/10/31 06:57:18;;;;;;;6.20;4.72;;;;;;;7.90;82.17;95335.16;5091696;28;20040;-51
2021/10/31 06:59:45;;;;;;;7.93;5.10;;;;;;;8.06;81.24;95328.06;5084899;28;20040;-49
2021/10/31 07:02:12;;;;;;;6.55;4.78;;;;;;;8.11;80.67;95330.53;5085811;28;20048;-50
2021/10/31 07:04:40;;;;;;;7.35;5.13;;;;;;;8.10;81.28;95325.47;5088928;28;20040;-50
2021/10/31 07:07:07;;;;;;;7.20;5.18;;;;;;;8.04;81.94;95324.91;5091103;28;20183;-47
2021/10/31 07:09:34;;;;;;;7.63;5.53;;;;;;;8.24;81.45;95325.19;5089775;28;20063;-52
2021/10/31 07:12:01;;;;;;;6.50;4.20;;;;;;;8.18;80.30;95325.38;5076627;28;20132;-51
2021/10/31 07:14:28;;;;;;;6.55;4.68;;;;;;;8.14;80.29;95324.47;5082894;28;20134;-52
2021/10/31 07:16:55;;;;;;;9.25;5.32;;;;;;;8.24;80.33;95322.50;5090068;28;20040;-50
2021/10/31 07:19:23;;;;;;;9.57;6.55;;;;;;;8.19;79.37;95316.19;5091030;28;20044;-49
2021/10/31 07:21:50;;;;;;;9.10;6.13;;;;;;;8.19;79.49;95321.59;5082048;28;20043;-50
2021/10/31 07:24:17;;;;;;;8.48;5.22;;;;;;;8.33;80.04;95320.50;5083723;28;20055;-50
2021/10/31 07:26:44;;;;;;;6.13;4.30;;;;;;;8.36;78.99;95312.53;5088850;28;20123;-50
2021/10/31 07:29:11;;;;;;;8.52;5.47;;;;;;;8.57;79.07;95312.50;5091045;28;20056;-52
2021/10/31 07:31:40;;;;;;;6.53;4.55;;;;;;;8.68;78.86;95309.38;5086630;28;20063;-52
2021/10/31 07:34:10;;;;;;;6.50;4.28;;;;;;;8.68;77.86;95309.38;5089335;28;20131;-47
2021/10/31 07:36:39;;;;;;;6.85;4.57;;;;;;;8.64;77.67;95303.84;5090207;28;20044;-51
2021/10/31 07:39:06;;;;;;;7.82;4.88;;;;;;;8.69;78.01;95303.66;5086008;28;20054;-49
2021/10/31 07:41:33;;;;;;;9.55;4.45;;;;;;;8.65;78.17;95306.25;5087733;28;20374;-49
2021/10/31 07:44:00;;;;;;;7.57;4.90;;;;;;;8.77;77.89;95308.16;5082562;28;20043;-47
2021/10/31 07:46:27;;;;;;;8.55;4.28;;;;;;;8.89;77.59;95316.25;5087801;28;20135;-47
2021/10/31 07:48:54;;;;;;;7.43;4.30;;;;;;;8.99;77.80;95315.03;5092323;28;20127;-47
2021/10/31 07:51:21;;;;;;;7.82;4.45;;;;;;;8.91;77.00;95313.25;5085181;28;20048;-49
2021/10/31 07:53:47;;;;;;;6.57;4.75;;;;;;;8.92;76.94;95320.19;5084263;28;20047;-50
2021/10/31 07:56:16;;;;;;;7.65;4.65;;;;;;;9.09;77.66;95305.69;5089076;28;20059;-48
2021/10/31 07:58:46;;;;;;;7.05;5.05;;;;;;;9.12;77.34;95305.81;5089446;28;20047;-48
2021/10/31 08:01:13;;;;;;;6.40;4.25;;;;;;;9.11;75.95;95312.34;5082132;28;20493;-48
2021/10/31 08:03:41;;;;;;;7.82;4.90;;;;;;;9.12;76.34;95308.50;5083800;28;20259;-51
2021/10/31 08:06:10;;;;;;;7.68;4.57;;;;;;;9.19;75.33;95309.84;5089670;28;20039;-48
2021/10/31 08:08:37;;;;;;;6.00;4.15;;;;;;;9.25;75.94;95312.00;5083834;28;20056;-48
2021/10/31 08:11:04;;;;;;;8.45;4.90;;;;;;;9.34;74.72;95303.78;5084390;28;20123;-51
2021/10/31 08:13:31;;;;;;;12.43;6.93;;;;;;;9.40;74.86;95305.13;5083877;28;20087;-48
2021/10/31 08:15:58;;;;;;;7.65;5.38;;;;;;;9.46;73.93;95298.38;5083437;28;20063;-49
2021/10/31 08:18:25;;;;;;;8.07;4.20;;;;;;;9.59;73.13;95293.72;5070199;28;20050;-47
2021/10/31 08:20:53;;;;;;;5.63;4.05;;;;;;;9.67;74.11;95290.09;5088011;28;20058;-52
2021/10/31 08:23:21;;;;;;;5.65;3.95;;;;;;;9.88;72.25;95284.53;5082692;28;20044;-49
2021/10/31 08:25:48;;;;;;;6.53;3.55;;;;;;;9.90;71.70;95274.16;5083228;28;20505;-50
2021/10/31 08:28:17;;;;;;;6.15;4.00;;;;;;;9.98;71.78;95284.03;5086072;28;20135;-51
2021/10/31 08:30:47;;;;;;;7.32;4.55;;;;;;;10.06;71.14;95280.41;5081494;28;20139;-47
2021/10/31 08:33:31;;;;;;;5.28;3.63;;;;;;;10.12;71.53;95277.47;5070483;28;20044;-50
2021/10/31 08:36:04;;;;;;;4.85;3.20;;;;;;;10.23;68.69;95275.81;5081652;28;20049;-51
2021/10/31 08:38:32;;;;;;;5.15;3.15;;;;;;;10.35;68.26;95275.78;5084626;28;20130;-49
2021/10/31 08:40:59;;;;;;;5.85;3.47;;;;;;;10.44;67.76;95268.31;5084222;28;20047;-49
2021/10/31 08:43:27;;;;;;;4.82;3.15;;;;;;;10.70;65.19;95264.31;5073051;28;20048;-51
2021/10/31 08:45:55;;;;;;;6.93;3.40;;;;;;;10.89;64.96;95253.56;5086619;28;20044;-52
2021/10/31 08:48:23;;;;;;;4.85;3.65;;;;;;;10.83;65.96;95256.91;5084323;28;20044;-49
2021/10/31 08:50:50;;;;;;;4.38;2.88;;;;;;;10.91;65.81;95250.50;5086211;28;20094;-51
2021/10/31 08:53:17;;;;;;;4.53;3.40;;;;;;;10.94;65.48;95247.88;5089145;28;20044;-52
2021/10/31 08:55:45;;;;;;;6.80;3.00;;;;;;;11.01;65.54;95236.44;5088700;28;20479;-50
2021/10/31 08:58:12;;;;;;;5.88;2.78;;;;;;;11.28;63.42;95240.16;5089218;28;20487;-50
2021/10/31 09:00:40;;;;;;;7.05;3.95;;;;;;;11.50;62.44;95224.34;5082210;28;20416;-50
2021/10/31 09:03:08;;;;;;;5.50;3.88;;;;;;;11.62;62.00;95222.28;5070244;28;20625;-50
2021/10/31 09:05:36;;;;;;;4.82;2.95;;;;;;;11.71;63.49;95222.09;5086376;28;20408;-51
2021/10/31 09:08:03;;;;;;;5.65;2.80;;;;;;;11.88;62.13;95223.59;5089036;28;20044;-51
2021/10/31 09:10:30;;;;;;;3.50;2.20;;;;;;;11.81;61.35;95216.09;5087362;28;20059;-50
2021/10/31 09:12:58;;;;;;;3.67;2.55;;;;;;;11.92;60.92;95208.19;5090213;28;20131;-52
2021/10/31 09:15:29;;;;;;;4.53;2.75;;;;;;;11.93;60.23;95205.13;5081813;28;20079;-51
2021/10/31 09:18:00;;;;;;;4.18;2.80;;;;;;;11.97;61.89;95202.50;5088608;28;20135;-49
2021/10/31 09:20:28;;;;;;;3.90;2.70;;;;;;;12.05;60.90;95189.84;5086946;28;20063;-49
2021/10/31 09:22:59;;;;;;;4.35;2.80;;;;;;;12.43;58.43;95182.75;5087065;28;20119;-50
2021/10/31 09:25:28;;;;;;;4.97;2.80;;;;;;;12.38;59.76;95184.63;5090208;28;20152;-50
2021/10/31 09:27:56;;;;;;;5.70;2.70;;;;;;;12.44;60.41;95178.91;5089200;28;20127;-51
2021/10/31 09:30:25;;;;;;;4.10;2.40;;;;;;;12.72;58.03;95179.38;5088095;28;20049;-49
2021/10/31 09:32:53;;;;;;;4.45;2.50;;;;;;;12.78;58.22;95177.91;5085992;28;20553;-48
2021/10/31 09:35:24;;;;;;;4.72;2.20;;;;;;;12.84;58.92;95170.25;5088703;28;20040;-50
2021/10/31 09:37:54;;;;;;;3.15;1.83;;;;;;;13.03;56.26;95167.44;5088367;28;20040;-49
2021/10/31 09:40:23;;;;;;;5.45;2.13;;;;;;;13.15;57.55;95160.97;5085233;28;20094;-53
2021/10/31 09:42:51;;;;;;;2.88;2.08;;;;;;;13.05;58.26;95158.91;5080572;28;20435;-49
2021/10/31 09:45:20;;;;;;;7.55;2.60;;;;;;;13.09;59.02;95165.16;5083861;28;20134;-52
2021/10/31 09:48:11;;;;;;;3.67;2.03;;;;;;;13.04;60.08;95155.41;5088719;28;20052;-55
2021/10/31 09:50:44;;;;;;;5.63;2.70;;;;;;;13.22;58.50;95150.19;5088759;28;20123;-52
2021/10/31 09:53:16;;;;;;;3.60;2.20;;;;;;;13.19;57.31;95155.59;5077602;28;20048;-49
2021/10/31 09:55:44;;;;;;;4.33;2.40;;;;;;;13.52;54.76;95135.88;5084698;28;20071;-48
2021/10/31 09:58:24;;;;;;;5.25;2.53;;;;;;;13.61;54.66;95136.34;5087433;28;20055;-48
2021/10/31 10:00:55;;;;;;;4.78;2.03;;;;;;;13.59;55.81;95132.47;5068891;28;20044;-48
2021/10/31 10:06:19;;;;;;;2.90;1.90;;;;;;;13.98;52.62;95130.16;5085208;28;20135;-50
2021/10/31 10:09:08;;;;;;;3.55;2.20;;;;;;;13.97;52.48;95129.38;5080688;28;20114;-51
2021/10/31 10:11:40;;;;;;;8.48;6.20;;;;;;;14.19;50.52;95115.97;5076886;28;20197;-50
2021/10/31 10:14:24;;;;;;;7.50;3.00;;;;;;;14.38;50.26;95114.97;5084463;28;20159;-50
2021/10/31 10:16:57;;;;;;;13.15;10.13;;;;;;;14.38;50.98;95118.47;5091493;28;20075;-48
2021/10/31 10:19:27;;;;;;;6.13;4.05;;;;;;;14.44;51.06;95114.25;5090561;28;20040;-49
2021/10/31 10:22:00;;;;;;;5.93;3.33;;;;;;;14.38;50.56;95110.31;5088743;28;20051;-51
2021/10/31 10:24:32;;;;;;;3.97;1.83;;;;;;;14.70;48.76;95107.84;5091102;28;20048;-51
2021/10/31 10:27:03;;;;;;;5.00;1.77;;;;;;;14.68;49.39;95099.28;5091100;28;20048;-52
2021/10/31 10:29:34;;;;;;;2.35;1.65;;;;;;;14.74;49.10;95097.00;5090583;28;20741;-49
2021/10/31 10:32:14;;;;;;;2.92;1.90;;;;;;;14.81;48.40;95083.41;5085753;28;20064;-49
2021/10/31 10:34:48;;;;;;;2.95;1.77;;;;;;;15.04;47.08;95088.59;5092047;28;20042;-48
2021/10/31 10:37:39;;;;;;;3.40;2.17;;;;;;;15.00;48.27;95073.41;5089482;28;20040;-48
2021/10/31 10:40:19;;;;;;;3.17;2.17;;;;;;;15.10;47.27;95064.50;5073908;28;20547;-48
2021/10/31 10:42:50;;;;;;;3.92;2.22;;;;;;;15.16;47.40;95063.75;5089632;28;20058;-50
2021/10/31 10:45:22;;;;;;;3.03;1.60;;;;;;;15.28;47.00;95051.75;5087977;28;20047;-49
2021/10/31 10:47:56;;;;;;;2.13;1.50;;;;;;;15.43;45.72;95049.84;5091806;28;20059;-50
2021/10/31 10:50:25;;;;;;;2.17;1.50;;;;;;;15.51;45.34;95042.47;5090254;28;20047;-49
2021/10/31 10:52:53;;;;;;;4.05;1.73;;;;;;;15.65;46.97;95029.63;5099459;28;20485;-50
2021/10/31 10:55:27;;;;;;;3.10;1.73;;;;;;;15.78;47.71;95027.34;5099275;28;20044;-49
2021/10/31 10:58:07;;;;;;;3.28;1.83;;;;;;;15.99;49.06;95021.16;5063901;28;1224885;-48
2021/10/31 11:00:40;;;;;;;3.92;1.73;;;;;;;16.16;49.85;95014.13;5092376;28;20048;-49
2021/10/31 11:03:18;;;;;;;3.30;1.90;;;;;;;16.23;50.05;95008.66;5090035;28;20119;-49
2021/10/31 11:05:59;;;;;;;4.05;2.22;;;;;;;16.39;50.31;95002.03;5092423;28;20146;-49
2021/10/31 11:08:27;;;;;;;5.85;2.00;;;;;;;16.49;49.57;94999.28;5084954;28;20075;-53
2021/10/31 11:11:05;;;;;;;3.35;1.95;;;;;;;16.50;46.75;95008.25;5092164;28;20485;-51
2021/10/31 11:13:48;;;;;;;3.50;2.20;;;;;;;16.79;46.78;95019.91;5078441;28;20044;-48
2021/10/31 11:16:15;;;;;;;3.40;2.20;;;;;;;16.95;48.19;95012.06;5091521;28;20685;-48
2021/10/31 11:18:44;;;;;;;3.63;2.03;;;;;;;17.13;45.17;95003.03;5084400;28;20040;-52
2021/10/31 11:21:12;;;;;;;2.70;1.77;;;;;;;17.31;44.07;94992.00;5090487;28;20036;-53
2021/10/31 11:23:39;;;;;;;2.80;1.88;;;;;;;17.39;44.38;94993.53;5072197;28;20127;-49
2021/10/31 11:26:13;;;;;;;3.10;1.95;;;;;;;17.40;44.32;94987.66;5084309;28;20131;-53
2021/10/31 11:28:40;;;;;;;3.13;2.10;;;;;;;17.56;41.80;94989.91;5093058;28;20119;-49
2021/10/31 11:31:07;;;;;;;3.45;1.95;;;;;;;17.61;42.24;94983.22;5080231;28;20178;-52
2021/10/31 11:33:35;;;;;;;4.00;2.15;;;;;;;17.59;42.19;94985.59;5091275;28;20043;-52
2021/10/31 11:36:02;;;;;;;3.38;1.80;;;;;;;17.69;43.32;94979.28;5092722;28;20047;-53
2021/10/31 11:38:31;;;;;;;5.05;2.25;;;;;;;17.99;43.35;94971.25;5083817;28;20048;-52
2021/10/31 11:41:10;;;;;;;3.00;2.10;;;;;;;18.04;40.88;94967.31;5076659;28;20393;-49
2021/10/31 11:43:39;;;;;;;2.80;2.00;;;;;;;18.14;40.44;94966.47;5086937;28;20136;-50
2021/10/31 11:46:07;;;;;;;3.45;1.98;;;;;;;18.24;40.49;94956.59;5072238;28;20048;-49
2021/10/31 11:48:37;;;;;;;3.05;1.90;;;;;;;18.32;40.30;94954.56;5075375;28;20044;-49
2021/10/31 11:51:13;;;;;;;4.47;2.63;;;;;;;18.42;40.15;94943.47;5092190;28;20455;-51